createdAt,value
2023-05-15T00:01:01.126Z,14.10
2023-05-15T00:03:28.328Z,14.88
2023-05-15T00:05:55.880Z,13.60
2023-05-15T00:08:23.144Z,13.02
2023-05-15T00:11:00.792Z,12.88
2023-05-15T00:13:29.024Z,16.13
2023-05-15T00:15:56.260Z,11.00
2023-05-15T00:18:23.452Z,14.07
2023-05-15T00:20:50.932Z,10.43
2023-05-15T00:23:18.065Z,12.18
2023-05-15T00:25:45.271Z,17.00
2023-05-15T00:28:12.400Z,12.63
2023-05-15T00:30:39.566Z,10.23
2023-05-15T00:33:06.820Z,11.20
2023-05-15T00:35:35.425Z,10.55
2023-05-15T00:38:02.561Z,12.50
2023-05-15T00:40:29.903Z,11.55
2023-05-15T00:42:57.535Z,13.50
2023-05-15T00:45:25.894Z,15.38
2023-05-15T00:47:54.086Z,10.73
2023-05-15T00:50:21.870Z,12.20
2023-05-15T00:52:49.498Z,10.38
2023-05-15T00:55:16.699Z,9.07
2023-05-15T00:57:44.951Z,10.63
2023-05-15T01:00:15.751Z,8.70
2023-05-15T01:02:43.244Z,12.43
2023-05-15T01:05:10.554Z,10.52
2023-05-15T01:07:41.418Z,7.85
2023-05-15T01:10:09.196Z,9.60
2023-05-15T01:12:36.723Z,11.90
2023-05-15T01:15:04.129Z,13.18
2023-05-15T01:17:32.347Z,10.27
2023-05-15T01:20:00.298Z,12.32
2023-05-15T01:22:42.433Z,10.10
2023-05-15T01:25:15.300Z,10.25
2023-05-15T01:27:52.122Z,7.35
2023-05-15T01:30:21.340Z,7.03
2023-05-15T01:33:00.686Z,6.88
2023-05-15T01:35:28.109Z,8.88
2023-05-15T01:37:58.831Z,7.22
2023-05-15T01:40:26.916Z,12.45
2023-05-15T01:42:56.260Z,8.60
2023-05-15T01:45:25.411Z,9.75
2023-05-15T01:47:54.406Z,12.45
2023-05-15T01:50:22.533Z,8.00
2023-05-15T01:52:54.021Z,12.45
2023-05-15T01:55:21.949Z,12.27
2023-05-15T01:57:50.263Z,12.65
2023-05-15T02:00:18.552Z,15.70
2023-05-15T02:02:46.514Z,8.35
2023-05-15T02:05:14.029Z,8.80
2023-05-15T02:07:43.185Z,10.20
2023-05-15T02:10:10.952Z,13.27
2023-05-15T02:12:38.426Z,11.60
2023-05-15T02:15:06.709Z,9.98
2023-05-15T02:17:33.893Z,9.07
2023-05-15T02:20:01.191Z,10.23
2023-05-15T02:22:28.316Z,9.98
2023-05-15T02:24:55.544Z,13.60
2023-05-15T02:27:27.548Z,8.65
2023-05-15T02:30:03.676Z,11.20
2023-05-15T02:32:33.690Z,11.68
2023-05-15T02:35:09.862Z,11.20
2023-05-15T02:37:39.690Z,10.98
2023-05-15T02:40:11.132Z,10.73
2023-05-15T02:42:38.551Z,11.25
2023-05-15T02:45:06.578Z,10.68
2023-05-15T02:47:34.243Z,14.02
2023-05-15T02:50:02.186Z,16.35
2023-05-15T02:52:29.742Z,11.50
2023-05-15T02:54:56.949Z,15.05
2023-05-15T02:57:24.075Z,8.90
2023-05-15T02:59:52.850Z,13.75
2023-05-15T03:02:20.042Z,10.65
2023-05-15T03:04:48.052Z,11.32
2023-05-15T03:07:15.407Z,14.40
2023-05-15T03:09:42.625Z,16.25
2023-05-15T03:12:10.503Z,15.73
2023-05-15T03:14:37.665Z,18.35
2023-05-15T03:17:04.976Z,12.77
2023-05-15T03:19:33.407Z,12.63
2023-05-15T03:22:00.710Z,14.77
2023-05-15T03:24:27.864Z,16.67
2023-05-15T03:26:54.995Z,15.73
2023-05-15T03:29:22.217Z,13.80
2023-05-15T03:31:49.486Z,15.27
2023-05-15T03:34:16.672Z,19.40
2023-05-15T03:36:43.859Z,16.45
2023-05-15T03:39:11.115Z,13.65
2023-05-15T03:41:38.273Z,20.70
2023-05-15T03:44:05.542Z,12.93
2023-05-15T03:46:32.730Z,12.77
2023-05-15T03:48:59.954Z,17.40
2023-05-15T03:51:27.224Z,12.45
2023-05-15T03:53:55.027Z,12.13
2023-05-15T03:56:22.196Z,15.40
2023-05-15T03:58:49.416Z,14.45
2023-05-15T04:01:16.578Z,12.85
2023-05-15T04:03:43.721Z,13.10
2023-05-15T04:06:10.924Z,26.42
2023-05-15T04:08:39.654Z,14.40
2023-05-15T04:11:07.770Z,21.85
2023-05-15T04:13:37.224Z,12.48
2023-05-15T04:16:04.468Z,14.80
2023-05-15T04:18:31.816Z,11.40
2023-05-15T04:20:58.987Z,11.65
2023-05-15T04:23:26.488Z,20.75
2023-05-15T04:25:54.922Z,13.00
2023-05-15T04:28:22.186Z,14.80
2023-05-15T04:30:49.483Z,16.48
2023-05-15T04:33:16.699Z,12.55
2023-05-15T04:35:43.892Z,11.15
2023-05-15T04:38:11.166Z,12.05
2023-05-15T04:40:38.392Z,14.95
2023-05-15T04:43:05.974Z,14.10
2023-05-15T04:45:33.192Z,16.40
2023-05-15T04:48:00.589Z,13.57
2023-05-15T04:50:27.946Z,13.80
2023-05-15T04:52:55.214Z,15.63
2023-05-15T04:55:22.442Z,12.20
2023-05-15T04:57:49.972Z,15.85
2023-05-15T05:00:17.272Z,15.02
2023-05-15T05:02:45.204Z,13.95
2023-05-15T05:05:14.809Z,14.45
2023-05-15T05:07:44.502Z,15.68
2023-05-15T05:10:14.417Z,15.15
2023-05-15T05:12:41.630Z,13.07
2023-05-15T05:15:09.181Z,15.63
2023-05-15T05:17:36.500Z,14.63
2023-05-15T05:20:04.813Z,19.17
2023-05-15T05:22:32.035Z,16.75
2023-05-15T05:24:59.241Z,14.70
2023-05-15T05:27:27.166Z,23.13
2023-05-15T05:29:54.402Z,14.00
2023-05-15T05:32:21.572Z,15.55
2023-05-15T05:34:48.720Z,16.95
2023-05-15T05:37:15.880Z,17.20
2023-05-15T05:39:43.118Z,13.52
2023-05-15T05:42:10.597Z,16.75
2023-05-15T05:44:37.743Z,16.27
2023-05-15T05:47:05.039Z,16.27
2023-05-15T05:49:32.237Z,16.40
2023-05-15T05:52:05.468Z,19.80
2023-05-15T05:54:32.629Z,21.83
2023-05-15T05:56:59.749Z,22.02
2023-05-15T05:59:26.979Z,18.65
2023-05-15T06:01:54.304Z,18.02
2023-05-15T06:04:21.551Z,21.08
2023-05-15T06:06:50.175Z,18.20
2023-05-15T06:09:18.052Z,15.75
2023-05-15T06:11:45.541Z,19.05
2023-05-15T06:14:12.841Z,18.25
2023-05-15T06:16:40.102Z,19.55
2023-05-15T06:19:08.028Z,16.13
2023-05-15T06:21:35.237Z,18.00
2023-05-15T06:24:02.393Z,19.13
2023-05-15T06:26:29.656Z,17.75
2023-05-15T06:28:56.794Z,17.58
2023-05-15T06:31:24.163Z,20.15
2023-05-15T06:33:51.456Z,18.33
2023-05-15T06:36:18.646Z,16.48
2023-05-15T06:38:45.854Z,16.58
2023-05-15T06:41:12.991Z,18.08
2023-05-15T06:43:40.267Z,16.77
2023-05-15T06:46:07.575Z,17.95
2023-05-15T06:48:34.871Z,19.25
2023-05-15T06:51:02.157Z,18.48
2023-05-15T06:53:30.819Z,19.10
2023-05-15T06:55:58.043Z,19.33
2023-05-15T06:58:25.700Z,24.33
2023-05-15T07:00:54.227Z,20.98
2023-05-15T07:03:23.338Z,28.23
2023-05-15T07:05:51.280Z,29.98
2023-05-15T07:08:18.455Z,24.42
2023-05-15T07:10:45.713Z,22.48
2023-05-15T07:13:12.848Z,25.10
2023-05-15T07:15:40.311Z,31.65
2023-05-15T07:18:08.700Z,21.42
2023-05-15T07:20:36.194Z,20.45
2023-05-15T07:23:03.918Z,21.48
2023-05-15T07:25:31.275Z,15.57
2023-05-15T07:27:58.388Z,16.95
2023-05-15T07:30:26.383Z,15.32
2023-05-15T07:32:53.939Z,12.93
2023-05-15T07:35:21.180Z,16.17
2023-05-15T07:37:48.408Z,15.30
2023-05-15T07:40:15.634Z,14.35
2023-05-15T07:42:44.721Z,18.17
2023-05-15T07:45:12.022Z,15.52
2023-05-15T07:47:39.628Z,13.80
2023-05-15T07:50:07.123Z,12.00
2023-05-15T07:52:34.276Z,12.68
2023-05-15T07:55:01.711Z,14.20
2023-05-15T07:57:28.925Z,14.10
2023-05-15T07:59:56.394Z,12.82
2023-05-15T08:02:23.608Z,14.10
2023-05-15T08:04:50.787Z,15.32
2023-05-15T08:07:17.974Z,14.27
2023-05-15T08:09:45.427Z,17.17
2023-05-15T08:12:22.964Z,14.57
2023-05-15T08:14:56.798Z,16.77
2023-05-15T08:17:24.321Z,14.57
2023-05-15T08:19:51.621Z,21.63
2023-05-15T08:22:18.839Z,18.10
2023-05-15T08:24:46.221Z,17.88
2023-05-15T08:27:13.783Z,17.10
2023-05-15T08:29:41.162Z,17.08
2023-05-15T08:32:09.498Z,17.38
2023-05-15T08:34:37.236Z,19.45
2023-05-15T08:37:04.617Z,16.75
2023-05-15T08:39:31.867Z,16.75
2023-05-15T08:42:04.013Z,17.52
2023-05-15T08:44:31.488Z,16.15
2023-05-15T08:46:58.886Z,16.85
2023-05-15T08:49:46.178Z,21.80
2023-05-15T08:52:13.671Z,15.73
2023-05-15T08:54:41.367Z,15.65
2023-05-15T08:57:09.924Z,17.45
2023-05-15T08:59:38.435Z,18.48
2023-05-15T09:02:05.974Z,15.60
2023-05-15T09:04:33.329Z,15.45
2023-05-15T09:07:02.159Z,18.17
2023-05-15T09:09:29.576Z,17.95
2023-05-15T09:11:57.925Z,18.90
2023-05-15T09:14:25.101Z,17.83
2023-05-15T09:16:53.483Z,16.42
2023-05-15T09:19:23.912Z,16.02
2023-05-15T09:21:51.120Z,18.80
2023-05-15T09:24:18.388Z,15.07
2023-05-15T09:26:46.002Z,16.60
2023-05-15T09:29:18.075Z,18.80
2023-05-15T09:31:47.627Z,16.42
2023-05-15T09:34:15.345Z,20.98
2023-05-15T09:36:45.506Z,18.58
2023-05-15T09:39:12.760Z,17.17
2023-05-15T09:41:42.853Z,17.48
2023-05-15T09:44:21.412Z,20.15
2023-05-15T09:46:49.548Z,20.55
2023-05-15T09:49:16.859Z,17.67
2023-05-15T09:51:44.644Z,17.20
2023-05-15T09:54:18.285Z,16.55
2023-05-15T09:56:46.148Z,16.85
2023-05-15T09:59:14.708Z,17.55
2023-05-15T10:01:45.663Z,18.00
2023-05-15T10:04:13.848Z,16.60
2023-05-15T10:06:43.195Z,17.38
2023-05-15T10:09:11.650Z,17.02
2023-05-15T10:11:40.374Z,22.15
2023-05-15T10:14:09.072Z,23.65
2023-05-15T10:16:37.308Z,18.15
2023-05-15T10:19:05.503Z,17.33
2023-05-15T10:21:37.032Z,15.90
2023-05-15T10:24:04.746Z,19.25
2023-05-15T10:26:31.951Z,20.48
2023-05-15T10:29:00.645Z,19.25
2023-05-15T10:31:28.634Z,21.52
2023-05-15T10:33:56.188Z,23.92
2023-05-15T10:36:24.639Z,19.95
2023-05-15T10:38:52.624Z,20.55
2023-05-15T10:41:21.388Z,19.38
2023-05-15T10:43:49.964Z,20.50
2023-05-15T10:46:20.210Z,24.42
2023-05-15T10:48:47.410Z,17.30
2023-05-15T10:51:18.650Z,19.15
2023-05-15T10:53:46.617Z,20.05
2023-05-15T10:56:15.143Z,19.02
2023-05-15T10:58:47.281Z,18.50
2023-05-15T11:01:32.003Z,19.35
2023-05-15T11:04:26.811Z,19.40
2023-05-15T11:07:11.640Z,17.67
2023-05-15T11:09:39.102Z,21.38
2023-05-15T11:12:07.182Z,18.55
2023-05-15T11:14:38.936Z,19.85
2023-05-15T11:17:07.245Z,17.45
2023-05-15T11:19:35.200Z,16.58
2023-05-15T11:22:04.130Z,18.58
2023-05-15T11:24:32.549Z,16.50
2023-05-15T11:27:06.059Z,20.60
2023-05-15T11:29:33.196Z,17.95
2023-05-15T11:32:00.445Z,18.13
2023-05-15T11:34:41.939Z,17.38
2023-05-15T11:37:18.257Z,17.23
2023-05-15T11:39:45.705Z,17.55
2023-05-15T11:42:13.106Z,18.17
2023-05-15T11:44:40.485Z,18.27
2023-05-15T11:47:11.183Z,20.42
2023-05-15T11:49:39.269Z,18.35
2023-05-15T11:52:06.946Z,22.95
2023-05-15T11:54:34.273Z,16.42
2023-05-15T11:57:01.975Z,18.33
2023-05-15T11:59:29.387Z,18.95
2023-05-15T12:01:56.681Z,21.23
2023-05-15T12:04:24.009Z,19.80
2023-05-15T12:06:51.657Z,24.02
2023-05-15T12:09:27.358Z,18.60
2023-05-15T12:11:55.400Z,18.92
2023-05-15T12:14:29.155Z,19.30
2023-05-15T12:17:02.618Z,18.42
2023-05-15T12:19:30.013Z,21.92
2023-05-15T12:21:57.309Z,16.58
2023-05-15T12:24:25.045Z,19.42
2023-05-15T12:26:52.219Z,20.02
2023-05-15T12:29:19.557Z,17.63
2023-05-15T12:31:47.716Z,17.15
2023-05-15T12:34:15.118Z,19.08
2023-05-15T12:36:43.017Z,19.42
2023-05-15T12:39:11.312Z,17.02
2023-05-15T12:41:39.047Z,19.88
2023-05-15T12:44:06.784Z,17.83
2023-05-15T12:46:34.138Z,16.80
2023-05-15T12:49:01.810Z,17.48
2023-05-15T12:51:30.087Z,17.83
2023-05-15T12:53:58.339Z,16.60
2023-05-15T12:56:26.264Z,15.68
2023-05-15T12:58:54.614Z,18.88
2023-05-15T13:01:22.632Z,15.60
2023-05-15T13:03:51.151Z,15.02
2023-05-15T13:06:18.424Z,15.05
2023-05-15T13:08:47.649Z,18.30
2023-05-15T13:11:15.167Z,18.40
2023-05-15T13:13:44.244Z,17.63
2023-05-15T13:16:29.837Z,17.48
2023-05-15T13:18:58.424Z,22.27
2023-05-15T13:21:26.125Z,17.83
2023-05-15T13:23:53.525Z,17.42
2023-05-15T13:26:20.837Z,19.42
2023-05-15T13:28:48.104Z,23.33
2023-05-15T13:31:15.368Z,15.63
2023-05-15T13:33:42.620Z,15.70
2023-05-15T13:36:09.907Z,16.13
2023-05-15T13:38:37.127Z,15.52
2023-05-15T13:41:07.539Z,19.65
2023-05-15T13:43:34.733Z,18.40
2023-05-15T13:46:02.033Z,18.92
2023-05-15T13:48:29.380Z,18.38
2023-05-15T13:50:56.511Z,18.05
2023-05-15T13:53:23.789Z,19.50
2023-05-15T13:55:50.963Z,17.85
2023-05-15T13:58:18.252Z,16.77
2023-05-15T14:00:45.493Z,18.35
2023-05-15T14:03:15.087Z,17.00
2023-05-15T14:05:42.611Z,15.25
2023-05-15T14:08:09.952Z,16.75
2023-05-15T14:10:37.793Z,18.05
2023-05-15T14:13:05.074Z,17.48
2023-05-15T14:15:32.222Z,19.95
2023-05-15T14:17:59.537Z,17.88
2023-05-15T14:20:27.071Z,19.85
2023-05-15T14:22:54.335Z,16.65
2023-05-15T14:25:21.561Z,20.40
2023-05-15T14:27:48.736Z,16.60
2023-05-15T14:30:15.989Z,20.63
2023-05-15T14:32:43.212Z,20.48
2023-05-15T14:35:10.788Z,15.75
2023-05-15T14:37:37.998Z,18.00
2023-05-15T14:40:05.615Z,18.30
2023-05-15T14:42:33.073Z,17.05
2023-05-15T14:45:00.411Z,16.40
2023-05-15T14:47:28.541Z,19.77
2023-05-15T14:49:55.816Z,17.05
2023-05-15T14:52:23.009Z,19.33
2023-05-15T14:55:00.687Z,21.20
2023-05-15T14:57:34.860Z,20.40
2023-05-15T15:00:02.290Z,19.67
2023-05-15T15:02:29.615Z,18.95
2023-05-15T15:04:57.926Z,20.20
2023-05-15T15:07:30.189Z,26.52
2023-05-15T15:09:57.372Z,23.90
2023-05-15T15:12:24.624Z,23.60
2023-05-15T15:14:51.858Z,21.20
2023-05-15T15:17:19.138Z,23.88
2023-05-15T15:19:46.311Z,24.25
2023-05-15T15:22:13.476Z,22.40
2023-05-15T15:24:40.665Z,22.52
2023-05-15T15:27:10.217Z,21.70
2023-05-15T15:29:37.494Z,17.33
2023-05-15T15:32:04.928Z,18.77
2023-05-15T15:34:32.140Z,16.70
2023-05-15T15:36:59.389Z,19.98
2023-05-15T15:39:26.536Z,16.23
2023-05-15T15:41:54.473Z,17.73
2023-05-15T15:44:21.718Z,20.48
2023-05-15T15:46:48.865Z,19.95
2023-05-15T15:49:16.120Z,17.73
2023-05-15T15:51:43.417Z,18.42
2023-05-15T15:54:10.768Z,20.67
2023-05-15T15:56:37.907Z,18.35
2023-05-15T15:59:05.329Z,17.77
2023-05-15T16:01:33.468Z,17.15
2023-05-15T16:04:00.799Z,15.25
2023-05-15T16:06:28.183Z,16.55
2023-05-15T16:08:55.579Z,16.60
2023-05-15T16:11:23.903Z,15.90
2023-05-15T16:13:51.249Z,15.48
2023-05-15T16:16:18.548Z,14.93
2023-05-15T16:18:45.927Z,14.82
2023-05-15T16:21:13.424Z,14.20
2023-05-15T16:23:41.461Z,16.08
2023-05-15T16:26:11.267Z,14.98
2023-05-15T16:28:38.472Z,13.18
2023-05-15T16:31:05.630Z,12.10
2023-05-15T16:33:33.038Z,13.13
2023-05-15T16:36:00.288Z,16.10
2023-05-15T16:38:27.442Z,17.80
2023-05-15T16:40:54.566Z,15.68
2023-05-15T16:43:22.014Z,16.10
2023-05-15T16:45:49.272Z,14.70
2023-05-15T16:48:16.594Z,15.38
2023-05-15T16:50:44.243Z,13.32
2023-05-15T16:53:11.577Z,17.23
2023-05-15T16:55:39.045Z,12.90
2023-05-15T16:58:06.293Z,11.43
2023-05-15T17:00:33.430Z,11.15
2023-05-15T17:03:00.705Z,12.40
2023-05-15T17:05:29.268Z,12.38
2023-05-15T17:07:56.464Z,10.32
2023-05-15T17:10:23.858Z,9.35
2023-05-15T17:12:51.217Z,9.60
2023-05-15T17:15:18.516Z,9.80
2023-05-15T17:17:45.959Z,12.27
2023-05-15T17:20:13.382Z,10.27
2023-05-15T17:22:40.598Z,8.80
2023-05-15T17:25:08.335Z,12.15
2023-05-15T17:27:44.443Z,10.85
2023-05-15T17:30:12.089Z,8.80
2023-05-15T17:32:41.087Z,8.13
2023-05-15T17:35:08.628Z,10.32
2023-05-15T17:37:35.820Z,10.15
2023-05-15T17:40:04.566Z,8.63
2023-05-15T17:42:34.788Z,9.88
2023-05-15T17:45:02.003Z,8.98
2023-05-15T17:47:30.380Z,8.63
2023-05-15T17:49:58.666Z,12.43
2023-05-15T17:52:25.844Z,12.43
2023-05-15T17:54:53.057Z,12.68
2023-05-15T17:57:20.806Z,11.27
2023-05-15T17:59:48.093Z,13.45
2023-05-15T18:02:15.268Z,9.73
2023-05-15T18:04:42.642Z,11.52
2023-05-15T18:07:09.750Z,10.27
2023-05-15T18:09:37.530Z,10.27
2023-05-15T18:12:04.813Z,11.18
2023-05-15T18:14:31.952Z,10.70
2023-05-15T18:16:59.141Z,12.57
2023-05-15T18:19:26.459Z,11.43
2023-05-15T18:21:53.668Z,13.02
2023-05-15T18:24:20.983Z,11.63
2023-05-15T18:26:48.128Z,9.40
2023-05-15T18:29:15.296Z,10.82
2023-05-15T18:31:42.604Z,9.13
2023-05-15T18:34:09.828Z,10.50
2023-05-15T18:36:37.001Z,12.60
2023-05-15T18:39:04.201Z,12.68
2023-05-15T18:41:31.426Z,10.90
2023-05-15T18:43:58.692Z,15.15
2023-05-15T18:46:28.139Z,16.40
2023-05-15T18:48:58.485Z,16.42
2023-05-15T18:51:25.626Z,15.93
2023-05-15T18:53:52.808Z,14.95
2023-05-15T18:56:23.480Z,15.32
2023-05-15T18:58:51.015Z,13.02
2023-05-15T19:01:18.208Z,13.77
2023-05-15T19:03:45.722Z,14.38
2023-05-15T19:06:19.823Z,12.20
2023-05-15T19:08:48.004Z,16.92
2023-05-15T19:11:15.831Z,13.25
2023-05-15T19:13:43.015Z,15.60
2023-05-15T19:16:10.399Z,14.90
2023-05-15T19:18:37.632Z,13.95
2023-05-15T19:21:04.964Z,13.95
2023-05-15T19:23:35.183Z,14.05
2023-05-15T19:26:02.499Z,11.60
2023-05-15T19:28:30.651Z,11.30
2023-05-15T19:30:59.873Z,12.77
2023-05-15T19:33:30.219Z,11.07
2023-05-15T19:35:57.436Z,16.35
2023-05-15T19:38:24.612Z,12.00
2023-05-15T19:40:52.913Z,12.90
2023-05-15T19:43:20.082Z,11.05
2023-05-15T19:45:47.271Z,13.25
2023-05-15T19:48:14.604Z,12.18
2023-05-15T19:50:41.757Z,11.75
2023-05-15T19:53:09.014Z,11.35
2023-05-15T19:55:36.175Z,11.15
2023-05-15T19:58:03.393Z,11.95
2023-05-15T20:00:30.781Z,12.30
2023-05-15T20:02:58.213Z,11.18
2023-05-15T20:05:28.102Z,11.00
2023-05-15T20:07:55.945Z,11.10
2023-05-15T20:10:24.660Z,9.93
2023-05-15T20:12:55.460Z,10.43
2023-05-15T20:15:24.750Z,15.57
2023-05-15T20:17:52.067Z,13.20
2023-05-15T20:20:19.227Z,11.65
2023-05-15T20:22:46.823Z,10.63
2023-05-15T20:25:15.092Z,13.40
2023-05-15T20:27:42.288Z,11.70
2023-05-15T20:30:12.882Z,10.93
2023-05-15T20:32:40.222Z,11.55
2023-05-15T20:35:08.572Z,12.05
2023-05-15T20:37:36.526Z,11.30
2023-05-15T20:40:05.640Z,12.25
2023-05-15T20:42:33.027Z,12.77
2023-05-15T20:45:00.199Z,10.95
2023-05-15T20:47:27.424Z,12.55
2023-05-15T20:49:54.801Z,11.43
2023-05-15T20:52:22.229Z,10.85
2023-05-15T20:54:49.370Z,19.08
2023-05-15T20:57:16.629Z,12.05
2023-05-15T20:59:43.803Z,11.05
2023-05-15T21:02:11.138Z,12.65
2023-05-15T21:04:39.270Z,12.20
2023-05-15T21:07:06.866Z,9.35
2023-05-15T21:09:34.636Z,11.55
2023-05-15T21:12:05.091Z,12.15
2023-05-15T21:14:32.300Z,11.70
2023-05-15T21:16:59.573Z,11.68
2023-05-15T21:19:26.888Z,8.77
2023-05-15T21:21:54.038Z,11.37
2023-05-15T21:24:22.268Z,12.17
2023-05-15T21:26:52.263Z,11.82
2023-05-15T21:29:19.518Z,12.50
2023-05-15T21:31:48.096Z,10.40
2023-05-15T21:34:18.559Z,11.03
2023-05-15T21:36:45.907Z,11.05
2023-05-15T21:39:13.050Z,13.15
2023-05-15T21:41:40.162Z,12.18
2023-05-15T21:44:10.466Z,12.27
2023-05-15T21:46:38.171Z,11.32
2023-05-15T21:49:05.492Z,15.35
2023-05-15T21:51:34.467Z,16.90
2023-05-15T21:54:01.838Z,13.43
2023-05-15T21:56:29.108Z,13.07
2023-05-15T21:58:57.217Z,9.73
2023-05-15T22:01:24.507Z,9.50
2023-05-15T22:03:51.742Z,12.45
2023-05-15T22:06:18.892Z,17.92
2023-05-15T22:08:46.259Z,14.95
2023-05-15T22:11:13.473Z,13.93
2023-05-15T22:13:40.781Z,12.73
2023-05-15T22:16:08.859Z,12.02
2023-05-15T22:18:37.698Z,12.55
2023-05-15T22:21:06.400Z,10.27
2023-05-15T22:23:33.746Z,10.33
2023-05-15T22:26:01.118Z,10.60
2023-05-15T22:28:28.409Z,11.77
2023-05-15T22:30:55.559Z,11.75
2023-05-15T22:33:24.411Z,12.63
2023-05-15T22:35:52.839Z,12.20
2023-05-15T22:38:23.535Z,11.10
2023-05-15T22:40:54.335Z,14.43
2023-05-15T22:43:22.517Z,12.40
2023-05-15T22:45:49.782Z,13.15
2023-05-15T22:48:17.066Z,12.20
2023-05-15T22:50:44.844Z,13.45
2023-05-15T22:53:12.046Z,53.85
2023-05-15T22:55:39.444Z,28.80
2023-05-15T22:58:06.741Z,26.40
2023-05-15T23:00:34.304Z,22.55
2023-05-15T23:03:01.570Z,15.85
2023-05-15T23:05:28.797Z,12.03
2023-05-15T23:07:56.195Z,12.70
2023-05-15T23:10:23.572Z,15.07
2023-05-15T23:12:51.357Z,14.00
2023-05-15T23:15:18.585Z,10.93
2023-05-15T23:17:45.781Z,11.77
2023-05-15T23:20:13.501Z,11.20
2023-05-15T23:22:40.782Z,13.60
2023-05-15T23:25:08.062Z,12.57
2023-05-15T23:27:35.356Z,14.48
2023-05-15T23:30:02.584Z,14.10
2023-05-15T23:32:29.772Z,13.17
2023-05-15T23:34:58.457Z,12.20
2023-05-15T23:37:26.029Z,12.87
2023-05-15T23:39:55.180Z,12.47
2023-05-15T23:42:23.089Z,17.10
2023-05-15T23:44:51.175Z,15.10
2023-05-15T23:47:18.430Z,13.07
2023-05-15T23:49:45.614Z,13.17
2023-05-15T23:52:12.819Z,15.13
2023-05-15T23:54:40.491Z,16.00
2023-05-15T23:57:07.706Z,12.87
2023-05-15T23:59:34.941Z,13.07
